Time;durP1;ratioP1;P1;durP2;ratioP2;P2;SDS_P1;SDS_P2;PMS_P1;PMS_P2;Temp;Humidity;BMP_temperature;BMP_pressure;BME280_temperature;BME280_humidity;BME280_pressure;Samples;Min_cycle;Max_cycle;Signal;HPM_P1;HPM_P2
2023/06/19 00:02:13;;;;;;;5.78;5.18;;;;;;;21.38;100.00;100972.44;4969116;28;20055;-84
2023/06/19 00:04:40;;;;;;;5.65;4.80;;;;;;;21.36;100.00;100966.25;4938563;29;20533;-84
2023/06/19 00:07:08;;;;;;;5.55;5.07;;;;;;;21.37;100.00;100972.47;4966276;28;20047;-85
2023/06/19 00:09:35;;;;;;;5.63;5.00;;;;;;;21.37;100.00;100965.31;4953463;29;20047;-84
2023/06/19 00:12:04;;;;;;;5.88;5.38;;;;;;;21.36;100.00;100960.00;4960401;28;20078;-84
2023/06/19 00:14:35;;;;;;;5.07;4.68;;;;;;;21.36;100.00;100957.31;4893896;28;20059;-83
2023/06/19 00:17:03;;;;;;;6.47;5.77;;;;;;;21.35;100.00;100948.41;4933860;29;20048;-87
2023/06/19 00:19:30;;;;;;;5.32;4.82;;;;;;;21.35;100.00;100937.69;4968732;28;20039;-84
2023/06/19 00:21:57;;;;;;;7.43;5.13;;;;;;;21.35;100.00;100943.06;4942641;29;20058;-85
2023/06/19 00:24:25;;;;;;;4.90;4.40;;;;;;;21.32;100.00;100932.47;4935066;29;20052;-85
2023/06/19 00:26:52;;;;;;;5.68;5.13;;;;;;;21.32;100.00;100931.59;4938650;29;20067;-85
2023/06/19 00:29:28;;;;;;;6.18;4.78;;;;;;;21.31;100.00;100924.50;4955821;28;20043;-83
2023/06/19 00:31:56;;;;;;;8.88;4.80;;;;;;;21.29;100.00;100911.16;4920119;28;20505;-84
2023/06/19 00:34:24;;;;;;;5.38;4.97;;;;;;;21.28;100.00;100913.88;4937954;29;20693;-84
2023/06/19 00:36:56;;;;;;;5.07;4.57;;;;;;;21.27;100.00;100914.84;4968633;28;20074;-84
2023/06/19 00:39:25;;;;;;;8.00;5.40;;;;;;;21.29;100.00;100918.31;4952577;29;20047;-84
2023/06/19 00:41:52;;;;;;;6.18;4.70;;;;;;;21.30;100.00;100915.56;4970357;28;20529;-84
2023/06/19 00:44:20;;;;;;;5.13;4.70;;;;;;;21.31;100.00;100917.31;4944648;28;20059;-85
2023/06/19 00:46:52;;;;;;;5.10;4.60;;;;;;;21.33;100.00;100914.59;4929361;28;20499;-85
2023/06/19 00:49:20;;;;;;;7.38;5.43;;;;;;;21.34;100.00;100908.28;4950265;29;20477;-84
2023/06/19 00:51:52;;;;;;;6.75;5.10;;;;;;;21.34;100.00;100909.16;4987318;28;20521;-85
2023/06/19 00:54:20;;;;;;;5.85;5.35;;;;;;;21.34;100.00;100901.13;4954531;28;20058;-84
2023/06/19 00:56:48;;;;;;;5.95;4.70;;;;;;;21.36;100.00;100890.31;4938526;29;20058;-84
2023/06/19 00:59:19;;;;;;;6.68;5.45;;;;;;;21.37;100.00;100895.63;4945422;28;20035;-83
2023/06/19 01:01:47;;;;;;;5.93;5.33;;;;;;;21.38;100.00;100883.97;4928544;28;20039;-84
2023/06/19 01:04:14;;;;;;;5.40;4.90;;;;;;;21.40;100.00;100884.78;4950458;29;20055;-84
2023/06/19 01:06:57;;;;;;;5.17;4.60;;;;;;;21.39;100.00;100883.03;4938114;29;20047;-84
2023/06/19 01:09:31;;;;;;;4.68;4.28;;;;;;;21.41;100.00;100888.31;4951825;29;20043;-84
2023/06/19 01:12:10;;;;;;;8.27;5.00;;;;;;;21.41;100.00;100881.16;4969490;28;20059;-84
2023/06/19 01:14:53;;;;;;;6.53;4.68;;;;;;;21.41;100.00;100878.47;4945210;28;20055;-84
2023/06/19 01:17:21;;;;;;;5.60;5.10;;;;;;;21.43;100.00;100863.19;4913162;28;20918;-84
2023/06/19 01:19:50;;;;;;;5.13;4.40;;;;;;;21.46;100.00;100856.88;4946449;29;20048;-84
2023/06/19 01:22:25;;;;;;;6.00;5.40;;;;;;;21.51;100.00;100856.66;4943604;29;20095;-84
2023/06/19 01:24:53;;;;;;;5.05;4.32;;;;;;;21.52;100.00;100866.47;4955876;28;20051;-83
2023/06/19 01:27:25;;;;;;;4.90;4.43;;;;;;;21.53;100.00;100860.16;4929682;29;20055;-83
2023/06/19 01:29:53;;;;;;;5.97;4.50;;;;;;;21.53;100.00;100854.78;4952697;29;20062;-84
2023/06/19 01:32:29;;;;;;;5.05;4.45;;;;;;;21.54;100.00;100857.41;4943362;28;20067;-83
2023/06/19 01:34:57;;;;;;;7.03;5.28;;;;;;;21.54;100.00;100851.19;4928421;28;20051;-84
2023/06/19 01:37:28;;;;;;;5.63;4.88;;;;;;;21.53;100.00;100844.97;4947794;29;20059;-83
2023/06/19 01:39:58;;;;;;;5.35;4.53;;;;;;;21.54;100.00;100844.00;4983282;28;20039;-84
2023/06/19 01:42:26;;;;;;;6.07;5.30;;;;;;;21.53;100.00;100839.59;4935377;29;20047;-84
2023/06/19 01:44:54;;;;;;;5.57;4.35;;;;;;;21.54;100.00;100833.28;4966647;28;20310;-83
2023/06/19 01:47:21;;;;;;;5.50;5.00;;;;;;;21.54;100.00;100832.41;4920405;29;20054;-84
2023/06/19 01:49:49;;;;;;;5.85;4.45;;;;;;;21.54;100.00;100824.38;4922809;28;20050;-84
2023/06/19 01:52:16;;;;;;;5.07;4.63;;;;;;;21.53;100.00;100841.38;4928511;29;20068;-84
2023/06/19 01:54:44;;;;;;;8.85;4.80;;;;;;;21.52;100.00;100828.94;4959769;28;20430;-84
2023/06/19 01:57:12;;;;;;;6.55;5.03;;;;;;;21.51;100.00;100829.88;4952543;29;20050;-84
2023/06/19 01:59:40;;;;;;;5.07;4.68;;;;;;;21.49;100.00;100839.78;4931639;29;20419;-84
2023/06/19 02:02:07;;;;;;;5.88;4.57;;;;;;;21.47;100.00;100836.28;4944898;28;20522;-84
2023/06/19 02:04:35;;;;;;;9.38;4.90;;;;;;;21.46;100.00;100834.56;4935945;28;20043;-84
2023/06/19 02:07:03;;;;;;;5.60;5.10;;;;;;;21.47;100.00;100830.94;4961959;28;20051;-84
2023/06/19 02:09:31;;;;;;;6.90;5.10;;;;;;;21.48;99.71;100830.00;4952467;28;20495;-84
2023/06/19 02:11:58;;;;;;;5.93;5.32;;;;;;;21.49;100.00;100829.06;4948068;28;20043;-84
2023/06/19 02:14:27;;;;;;;5.68;5.07;;;;;;;21.46;100.00;100815.81;4935202;29;20063;-84
2023/06/19 02:16:54;;;;;;;5.63;5.05;;;;;;;21.43;98.35;100822.13;4952125;28;20043;-84
2023/06/19 02:19:22;;;;;;;5.60;5.10;;;;;;;21.46;98.48;100821.16;4951714;28;20047;-84
2023/06/19 02:21:49;;;;;;;5.50;5.00;;;;;;;21.45;98.04;100817.59;4935208;29;20058;-84
2023/06/19 02:24:17;;;;;;;7.20;5.30;;;;;;;21.45;97.71;100819.41;4963080;28;20047;-84
2023/06/19 02:26:44;;;;;;;5.57;5.00;;;;;;;21.45;98.41;100822.94;4934282;29;20387;-84
2023/06/19 02:29:13;;;;;;;6.75;4.95;;;;;;;21.44;98.55;100821.22;4951427;29;20406;-83
2023/06/19 02:31:42;;;;;;;4.88;4.47;;;;;;;21.43;98.21;100819.44;4952140;29;20054;-84
2023/06/19 02:34:10;;;;;;;5.95;5.22;;;;;;;21.41;98.20;100814.13;4946587;28;20051;-86
2023/06/19 02:36:38;;;;;;;5.25;4.85;;;;;;;21.38;97.79;100816.97;4922362;28;20051;-84
2023/06/19 02:39:06;;;;;;;5.10;4.60;;;;;;;21.36;97.51;100808.13;4934032;29;20047;-85
2023/06/19 02:41:33;;;;;;;5.57;5.05;;;;;;;21.35;97.32;100816.22;4957340;28;20465;-83
2023/06/19 02:44:03;;;;;;;5.90;5.30;;;;;;;21.33;96.67;100808.25;4945613;29;20047;-86
2023/06/19 02:46:30;;;;;;;5.45;4.95;;;;;;;21.32;96.06;100805.63;4951056;29;20047;-84
2023/06/19 02:48:58;;;;;;;7.50;5.53;;;;;;;21.30;95.26;100799.44;4929550;29;20047;-84
2023/06/19 02:51:26;;;;;;;5.72;5.10;;;;;;;21.29;95.46;100806.63;4902282;29;20050;-84
2023/06/19 02:53:53;;;;;;;6.30;5.47;;;;;;;21.27;94.51;100805.81;4935551;29;20063;-84
2023/06/19 02:56:26;;;;;;;6.50;5.53;;;;;;;21.26;94.42;100801.38;4964903;28;20054;-84
2023/06/19 02:58:53;;;;;;;5.57;5.03;;;;;;;21.26;94.20;100800.53;4934015;29;20051;-86
2023/06/19 03:01:20;;;;;;;5.68;5.18;;;;;;;21.22;94.21;100799.78;4962855;28;20557;-83
2023/06/19 03:03:48;;;;;;;5.75;5.15;;;;;;;21.20;94.25;100798.97;4947145;28;20047;-84
2023/06/19 03:06:17;;;;;;;8.20;4.88;;;;;;;21.17;94.22;100796.41;4920954;28;20462;-84
2023/06/19 03:08:46;;;;;;;7.38;4.95;;;;;;;21.14;94.03;100802.78;4935562;29;20051;-84
2023/06/19 03:11:13;;;;;;;5.45;4.95;;;;;;;21.10;93.98;100798.50;4938098;29;20054;-86
2023/06/19 03:13:52;;;;;;;6.15;5.28;;;;;;;21.06;93.77;100802.22;4947609;29;20055;-84
2023/06/19 03:16:21;;;;;;;7.47;6.03;;;;;;;21.03;93.74;100807.72;4950903;29;20039;-84
2023/06/19 03:18:49;;;;;;;5.93;5.43;;;;;;;20.98;94.06;100810.59;4952305;29;20502;-84
2023/06/19 03:21:22;;;;;;;5.82;5.10;;;;;;;20.96;94.74;100811.56;4940906;28;20062;-85
2023/06/19 03:23:50;;;;;;;9.65;5.18;;;;;;;20.93;95.01;100804.53;4966583;28;20055;-83
2023/06/19 03:26:21;;;;;;;5.35;4.85;;;;;;;20.90;95.13;100818.03;4964118;28;20055;-84
2023/06/19 03:28:48;;;;;;;6.30;5.40;;;;;;;20.86;95.19;100805.72;4921982;29;20062;-84
2023/06/19 03:31:16;;;;;;;6.10;5.20;;;;;;;20.86;95.25;100810.22;4932787;29;20055;-84
2023/06/19 03:33:43;;;;;;;8.38;5.97;;;;;;;20.85;95.60;100822.72;4950519;29;20078;-83
2023/06/19 03:36:12;;;;;;;7.03;5.63;;;;;;;20.83;95.54;100824.56;4965361;28;20055;-85
2023/06/19 03:38:48;;;;;;;6.28;5.55;;;;;;;20.82;96.26;100821.03;4911049;29;20087;-84
2023/06/19 03:41:19;;;;;;;6.53;5.32;;;;;;;20.82;96.42;100833.56;4934183;29;20503;-84
2023/06/19 03:43:47;;;;;;;7.47;5.85;;;;;;;20.81;96.48;100831.78;4951807;29;20074;-83
2023/06/19 03:46:15;;;;;;;6.78;6.18;;;;;;;20.79;96.05;100839.91;4930971;29;20059;-85
2023/06/19 03:48:43;;;;;;;8.70;5.50;;;;;;;20.79;96.51;100836.34;4950477;29;20498;-84
2023/06/19 03:51:11;;;;;;;7.85;5.75;;;;;;;20.76;96.68;100833.81;4935513;28;20076;-84
2023/06/19 03:53:39;;;;;;;6.38;5.75;;;;;;;20.76;96.96;100833.81;4887746;29;20051;-84
2023/06/19 03:56:06;;;;;;;6.00;5.40;;;;;;;20.74;96.90;100836.53;4948382;29;20051;-84
2023/06/19 03:58:34;;;;;;;6.03;5.22;;;;;;;20.74;96.84;100843.72;4948068;29;20051;-85
2023/06/19 04:01:02;;;;;;;6.07;5.47;;;;;;;20.74;97.24;100841.03;4934514;29;20498;-84
2023/06/19 04:03:30;;;;;;;5.90;5.25;;;;;;;20.75;97.52;100842.75;4967305;28;20062;-83
2023/06/19 04:05:58;;;;;;;7.70;5.57;;;;;;;20.74;97.63;100841.03;4951773;28;20059;-83
2023/06/19 04:08:25;;;;;;;7.07;5.30;;;;;;;20.75;97.89;100842.75;4913006;28;24922;-84
2023/06/19 04:10:55;;;;;;;6.07;5.47;;;;;;;20.76;98.16;100834.66;4957379;28;20414;-84
2023/06/19 04:13:22;;;;;;;7.07;5.78;;;;;;;20.77;98.51;100831.03;4964400;28;20047;-83
2023/06/19 04:15:51;;;;;;;6.25;5.65;;;;;;;20.78;98.45;100848.88;4949550;29;20043;-84
2023/06/19 04:18:19;;;;;;;5.95;5.20;;;;;;;20.79;99.00;100839.91;4941813;29;20397;-83
2023/06/19 04:20:46;;;;;;;6.60;5.28;;;;;;;20.82;99.34;100841.59;4963960;28;20039;-85
2023/06/19 04:23:14;;;;;;;9.30;5.60;;;;;;;20.88;99.78;100848.50;4916804;28;20063;-84
2023/06/19 04:25:41;;;;;;;5.72;5.13;;;;;;;20.95;100.00;100844.66;4932703;29;20051;-84
2023/06/19 04:28:09;;;;;;;8.13;5.55;;;;;;;21.05;100.00;100845.16;4943861;29;20051;-85
2023/06/19 04:30:39;;;;;;;9.02;6.13;;;;;;;21.18;100.00;100846.41;4934212;29;20052;-84
2023/06/19 04:33:07;;;;;;;10.27;5.60;;;;;;;21.22;100.00;100838.16;4944382;29;20052;-84
2023/06/19 04:35:40;;;;;;;6.25;5.65;;;;;;;21.25;100.00;100844.31;4962706;28;20039;-84
2023/06/19 04:38:08;;;;;;;5.95;5.45;;;;;;;21.22;100.00;100842.66;4928995;28;20054;-83
2023/06/19 04:40:36;;;;;;;7.22;5.20;;;;;;;21.22;100.00;100845.34;4944321;28;20047;-83
2023/06/19 04:43:05;;;;;;;6.80;5.32;;;;;;;21.21;100.00;100843.59;4932155;29;20636;-83
2023/06/19 04:45:33;;;;;;;6.10;5.60;;;;;;;21.19;100.00;100842.75;4951232;29;20218;-84
2023/06/19 04:48:03;;;;;;;8.73;6.03;;;;;;;21.19;100.00;100845.44;4935503;29;20055;-84
2023/06/19 04:50:30;;;;;;;;;;;;;;;21.29;100.00;100844.16;4951163;29;20062;-83
2023/06/19 04:52:57;;;;;;;6.00;5.10;;;;;;;21.42;100.00;100842.69;4970263;28;19923;-84
2023/06/19 04:55:25;;;;;;;9.68;5.60;;;;;;;21.48;100.00;100846.09;4925110;28;20051;-85
2023/06/19 04:57:53;;;;;;;5.18;4.68;;;;;;;21.64;100.00;100848.97;4960095;28;20066;-84
2023/06/19 05:00:23;;;;;;;5.93;4.72;;;;;;;21.87;100.00;100837.25;4944409;28;20051;-83
2023/06/19 05:02:51;;;;;;;6.28;5.38;;;;;;;22.36;100.00;100854.75;4938911;28;20051;-81
2023/06/19 05:05:18;;;;;;;5.85;5.22;;;;;;;22.87;100.00;100841.63;4926417;29;20411;-81
2023/06/19 05:07:50;;;;;;;5.22;4.72;;;;;;;23.38;100.00;100844.53;4913375;29;20047;-82
2023/06/19 05:10:19;;;;;;;5.07;4.57;;;;;;;23.93;99.38;100849.81;4890352;28;20047;-82
2023/06/19 05:12:46;;;;;;;4.55;3.88;;;;;;;24.48;98.00;100847.75;4954640;28;20055;-81
2023/06/19 05:15:15;;;;;;;3.78;3.47;;;;;;;25.02;95.68;100850.19;4935760;28;20056;-81
2023/06/19 05:17:46;;;;;;;4.80;3.70;;;;;;;25.44;92.85;100851.34;4962503;28;20153;-81
2023/06/19 05:20:14;;;;;;;4.05;3.60;;;;;;;25.76;91.93;100849.44;4951165;28;20062;-82
2023/06/19 05:22:41;;;;;;;7.88;3.67;;;;;;;26.02;89.12;100855.97;4939391;28;20055;-81
2023/06/19 05:25:09;;;;;;;3.60;3.30;;;;;;;26.22;88.28;100859.28;4931528;28;20530;-82
2023/06/19 05:27:36;;;;;;;3.45;3.15;;;;;;;26.45;87.46;100863.25;4945775;28;20051;-84
2023/06/19 05:30:05;;;;;;;3.92;3.45;;;;;;;26.64;86.56;100866.53;4935675;29;20059;-84
2023/06/19 05:32:32;;;;;;;3.47;3.17;;;;;;;26.78;84.70;100868.34;4948339;29;20539;-85
2023/06/19 05:35:01;;;;;;;3.53;3.22;;;;;;;26.86;83.74;100873.25;4952984;29;20058;-85
2023/06/19 05:37:28;;;;;;;4.13;3.30;;;;;;;26.78;83.21;100871.03;4961920;28;20055;-85
2023/06/19 05:39:57;;;;;;;4.78;3.85;;;;;;;26.54;82.64;100878.88;4905891;28;20066;-84
2023/06/19 05:42:24;;;;;;;5.18;3.55;;;;;;;26.33;83.52;100886.47;4959984;28;20048;-84
2023/06/19 05:44:51;;;;;;;3.78;3.47;;;;;;;26.26;83.87;100885.16;4947602;29;20149;-85
2023/06/19 05:47:20;;;;;;;3.38;3.10;;;;;;;26.29;84.22;100884.06;4936854;29;20062;-85
2023/06/19 05:49:48;;;;;;;4.22;3.30;;;;;;;26.39;83.95;100883.41;4982938;28;20043;-85
2023/06/19 05:52:15;;;;;;;3.58;3.35;;;;;;;26.43;83.29;100890.34;4951605;29;20526;-85
2023/06/19 05:54:43;;;;;;;3.53;3.22;;;;;;;26.29;84.26;100898.44;4925452;29;20490;-85
2023/06/19 05:57:11;;;;;;;3.58;2.75;;;;;;;26.07;85.49;100890.81;4918011;28;20048;-84
2023/06/19 05:59:38;;;;;;;3.97;2.97;;;;;;;26.12;85.55;100907.56;4942771;29;20430;-85
2023/06/19 06:02:06;;;;;;;3.83;3.10;;;;;;;26.12;84.56;100909.41;4936056;28;20051;-84
2023/06/19 06:04:36;;;;;;;3.70;3.40;;;;;;;26.01;84.68;100908.25;4943986;28;20503;-84
2023/06/19 06:07:04;;;;;;;3.92;3.08;;;;;;;25.85;86.27;100910.09;4934268;29;20083;-83
2023/06/19 06:09:32;;;;;;;4.00;3.67;;;;;;;25.80;85.95;100907.69;4959061;28;20055;-84
2023/06/19 06:12:00;;;;;;;6.18;3.30;;;;;;;25.49;87.95;100909.47;4937817;28;20522;-83
2023/06/19 06:14:30;;;;;;;3.55;3.25;;;;;;;25.35;89.17;100919.31;4924266;29;20059;-85
2023/06/19 06:16:57;;;;;;;6.25;3.40;;;;;;;25.11;89.66;100919.75;4923447;28;20055;-85
2023/06/19 06:19:25;;;;;;;4.25;3.92;;;;;;;24.87;91.07;100912.06;4927152;28;20065;-85
2023/06/19 06:21:53;;;;;;;4.43;4.00;;;;;;;24.75;92.68;100922.69;4920054;29;20066;-86
2023/06/19 06:24:20;;;;;;;4.18;3.78;;;;;;;24.71;94.21;100927.38;4931145;28;20051;-86
2023/06/19 06:26:48;;;;;;;4.60;4.00;;;;;;;24.82;94.12;100924.94;4935302;29;20054;-85
2023/06/19 06:29:15;;;;;;;6.43;4.32;;;;;;;24.66;94.80;100932.13;4881879;29;20059;-85
2023/06/19 06:31:46;;;;;;;5.88;4.90;;;;;;;24.33;96.27;100941.91;4966859;28;20051;-85
2023/06/19 06:34:14;;;;;;;6.75;6.05;;;;;;;24.00;97.75;100946.34;4945665;28;20070;-84
2023/06/19 06:36:41;;;;;;;6.57;5.57;;;;;;;23.68;99.75;100944.31;4948596;29;20050;-85
2023/06/19 06:39:28;;;;;;;7.10;5.88;;;;;;;23.42;100.00;100936.66;4932718;29;20062;-85
2023/06/19 06:41:55;;;;;;;7.55;5.90;;;;;;;23.22;100.00;100938.50;4952931;28;20052;-85
2023/06/19 06:44:22;;;;;;;6.90;6.22;;;;;;;23.09;100.00;100945.41;4899772;29;20057;-85
2023/06/19 06:46:50;;;;;;;8.32;7.25;;;;;;;22.91;100.00;100955.19;4951365;29;20051;-85
2023/06/19 06:49:20;;;;;;;7.45;6.68;;;;;;;22.77;100.00;100943.25;4972848;28;20047;-85
2023/06/19 06:51:47;;;;;;;7.20;6.35;;;;;;;22.68;100.00;100935.63;4968571;28;20062;-86
2023/06/19 06:54:15;;;;;;;7.93;6.95;;;;;;;22.65;100.00;100940.28;4980707;28;20051;-84
2023/06/19 06:56:43;;;;;;;7.68;6.40;;;;;;;22.63;100.00;100936.78;4944980;28;20059;-85
2023/06/19 06:59:10;;;;;;;7.15;6.45;;;;;;;22.68;100.00;100935.63;4945782;28;20426;-86
2023/06/19 07:01:38;;;;;;;7.03;6.35;;;;;;;22.71;100.00;100942.69;4919425;29;20062;-85
2023/06/19 07:04:06;;;;;;;7.18;6.50;;;;;;;22.75;100.00;100938.91;4918284;29;20047;-85
2023/06/19 07:06:33;;;;;;;9.13;6.30;;;;;;;22.74;100.00;100946.09;4928014;28;20071;-85
2023/06/19 07:09:00;;;;;;;6.05;5.40;;;;;;;22.75;100.00;100949.66;4969362;28;20051;-84
2023/06/19 07:11:29;;;;;;;5.85;5.25;;;;;;;22.69;100.00;100953.50;4925465;28;20090;-83
2023/06/19 07:13:57;;;;;;;5.35;4.85;;;;;;;22.60;100.00;100953.91;4944149;28;20050;-83
2023/06/19 07:16:25;;;;;;;5.93;4.78;;;;;;;22.56;100.00;100955.84;4875793;29;20058;-83
2023/06/19 07:18:53;;;;;;;5.38;4.88;;;;;;;22.46;100.00;100956.34;4909875;29;20055;-83
2023/06/19 07:21:27;;;;;;;4.80;4.05;;;;;;;22.39;100.00;100953.06;4906728;29;20054;-83
2023/06/19 07:23:55;;;;;;;7.30;4.07;;;;;;;22.37;100.00;100963.00;4956250;28;20051;-83
2023/06/19 07:26:23;;;;;;;4.05;3.70;;;;;;;22.35;100.00;100963.06;4916244;29;20051;-83
2023/06/19 07:28:50;;;;;;;3.75;3.38;;;;;;;22.34;100.00;100971.19;4968129;28;20430;-83
2023/06/19 07:31:18;;;;;;;3.95;3.65;;;;;;;22.34;100.00;100971.19;4870676;29;20051;-84
2023/06/19 07:33:45;;;;;;;4.53;3.70;;;;;;;22.35;100.00;100960.38;4904953;29;20085;-83
2023/06/19 07:36:15;;;;;;;4.75;3.83;;;;;;;22.40;100.00;100965.56;4913255;29;20052;-83
2023/06/19 07:38:43;;;;;;;3.45;3.25;;;;;;;22.43;100.00;100973.47;4963881;28;20055;-83
2023/06/19 07:41:11;;;;;;;3.47;3.28;;;;;;;22.43;100.00;100973.47;4915112;29;20055;-83
2023/06/19 07:43:38;;;;;;;3.15;2.90;;;;;;;22.38;100.00;100978.16;4944520;28;20051;-83
2023/06/19 07:46:06;;;;;;;5.38;3.28;;;;;;;22.35;100.00;100986.34;4905365;29;20051;-86
2023/06/19 07:48:33;;;;;;;3.45;3.25;;;;;;;22.26;100.00;100989.44;4933276;29;20148;-83
2023/06/19 07:51:01;;;;;;;4.13;3.83;;;;;;;22.10;100.00;101005.31;4949511;29;20050;-83
2023/06/19 07:53:28;;;;;;;4.32;4.03;;;;;;;21.96;100.00;100997.81;4917150;29;20051;-83
2023/06/19 07:55:55;;;;;;;4.82;4.32;;;;;;;21.80;100.00;101003.81;4932382;29;20059;-83
2023/06/19 07:58:23;;;;;;;4.68;4.20;;;;;;;21.63;100.00;100997.41;4957045;28;20506;-83
2023/06/19 08:00:50;;;;;;;5.15;4.75;;;;;;;21.61;100.00;101005.53;4935132;29;20438;-83
2023/06/19 08:03:18;;;;;;;6.13;5.53;;;;;;;21.62;100.00;101012.63;4907390;29;20070;-83
2023/06/19 08:05:46;;;;;;;9.90;6.55;;;;;;;21.55;100.00;101008.44;4933168;29;20047;-83
2023/06/19 08:08:13;;;;;;;8.90;7.07;;;;;;;21.51;100.00;101010.38;4964680;28;20058;-84
2023/06/19 08:10:41;;;;;;;7.07;6.45;;;;;;;21.47;100.00;100998.00;4924465;29;20047;-83
2023/06/19 08:13:08;;;;;;;7.88;6.78;;;;;;;21.42;100.00;101018.75;4938298;28;20396;-81
2023/06/19 08:15:35;;;;;;;8.45;7.65;;;;;;;21.35;100.00;101010.06;4957126;28;20391;-83
2023/06/19 08:18:03;;;;;;;9.07;8.20;;;;;;;21.26;100.00;101015.78;4918295;28;20056;-85
2023/06/19 08:20:31;;;;;;;9.32;8.38;;;;;;;21.15;100.00;101031.41;4949597;29;20078;-83
2023/06/19 08:22:58;;;;;;;11.63;9.23;;;;;;;21.10;100.00;101030.72;4884878;29;20054;-83
2023/06/19 08:25:25;;;;;;;12.40;9.13;;;;;;;21.03;100.00;101038.97;4965747;28;20055;-83
2023/06/19 08:27:53;;;;;;;10.85;9.52;;;;;;;21.01;100.00;101031.94;4938295;29;20410;-83
2023/06/19 08:30:20;;;;;;;11.07;9.25;;;;;;;21.01;100.00;101045.31;4927674;29;20055;-84
2023/06/19 08:32:48;;;;;;;10.65;9.40;;;;;;;20.97;100.00;101039.19;4892007;28;20043;-83
2023/06/19 08:35:15;;;;;;;12.60;10.52;;;;;;;21.00;100.00;101047.13;4951417;29;20437;-82
2023/06/19 08:37:44;;;;;;;10.32;9.20;;;;;;;21.00;100.00;101041.78;4951677;29;20043;-83
2023/06/19 08:40:12;;;;;;;10.60;9.27;;;;;;;20.99;100.00;101048.06;4962835;28;20044;-83
2023/06/19 08:42:39;;;;;;;10.75;9.52;;;;;;;21.01;100.00;101056.91;4940608;29;20047;-84
2023/06/19 08:45:07;;;;;;;9.10;8.20;;;;;;;21.02;100.00;101065.84;4925713;29;20059;-83
2023/06/19 08:47:38;;;;;;;10.63;9.10;;;;;;;21.04;100.00;101063.97;4941234;28;20073;-83
2023/06/19 08:50:06;;;;;;;8.98;8.00;;;;;;;21.00;100.00;101068.56;4937607;29;20418;-83
2023/06/19 08:52:34;;;;;;;9.90;8.75;;;;;;;20.96;100.00;101077.66;4913850;29;20056;-84
2023/06/19 08:55:02;;;;;;;10.07;7.88;;;;;;;20.89;100.00;101080.56;4958674;28;20058;-84
2023/06/19 08:57:40;;;;;;;9.13;7.05;;;;;;;20.81;100.00;101081.75;4964740;28;20082;-82
2023/06/19 09:00:10;;;;;;;8.98;7.30;;;;;;;20.77;100.00;101081.91;4944860;28;20050;-83
2023/06/19 09:02:41;;;;;;;6.93;5.75;;;;;;;20.66;100.00;101084.06;4907896;28;20048;-83
2023/06/19 09:05:12;;;;;;;;;;;;;;;20.54;100.00;101088.91;4949804;29;20047;-82
2023/06/19 09:07:40;;;;;;;6.40;5.35;;;;;;;20.51;100.00;101090.81;4949690;29;19922;-83
2023/06/19 09:10:15;;;;;;;5.53;5.00;;;;;;;20.46;100.00;101093.66;4912563;29;20066;-82
2023/06/19 09:13:05;;;;;;;7.18;5.82;;;;;;;20.50;100.00;101106.00;4966048;28;20051;-83
2023/06/19 09:15:35;;;;;;;6.05;5.55;;;;;;;20.53;100.00;101096.97;4957579;28;20540;-83
2023/06/19 09:18:09;;;;;;;10.48;5.93;;;;;;;20.59;100.00;101102.16;4950925;29;20055;-82
2023/06/19 09:20:44;;;;;;;8.32;5.95;;;;;;;20.66;100.00;101110.84;4911351;28;20058;-84
2023/06/19 09:23:12;;;;;;;7.55;5.90;;;;;;;20.68;100.00;101109.00;4950657;29;20047;-83
2023/06/19 09:25:56;;;;;;;8.65;6.55;;;;;;;20.72;100.00;101116.00;4944420;28;20055;-85
2023/06/19 09:28:26;;;;;;;9.07;6.25;;;;;;;20.79;100.00;101117.53;4958857;28;20058;-84
2023/06/19 09:30:56;;;;;;;10.73;7.22;;;;;;;20.79;100.00;101117.53;4943277;28;20050;-85
2023/06/19 09:33:29;;;;;;;9.30;6.57;;;;;;;20.81;100.00;101121.03;4895171;28;20047;-83
2023/06/19 09:36:00;;;;;;;7.97;5.90;;;;;;;20.82;100.00;101123.66;4930447;29;20422;-84
2023/06/19 09:38:28;;;;;;;;;;;;;;;20.83;100.00;101119.16;4942421;29;20056;-85
2023/06/19 09:41:01;;;;;;;6.07;5.03;;;;;;;20.88;100.00;101124.38;4946212;28;19926;-84
2023/06/19 09:43:38;;;;;;;5.38;4.88;;;;;;;20.94;100.00;101129.50;4919630;29;20047;-84
2023/06/19 09:46:07;;;;;;;7.57;5.38;;;;;;;20.95;100.00;101132.13;4946320;29;20491;-85
2023/06/19 09:48:35;;;;;;;5.10;4.60;;;;;;;20.99;100.00;101140.94;4953753;28;20057;-84
2023/06/19 09:51:19;;;;;;;7.28;4.70;;;;;;;21.08;100.00;101129.91;4927160;28;20051;-84
2023/06/19 09:53:51;;;;;;;6.35;4.85;;;;;;;21.20;100.00;101142.84;4967744;28;20511;-84
2023/06/19 09:56:21;;;;;;;6.40;4.53;;;;;;;21.33;100.00;101140.59;4925564;28;20124;-83
2023/06/19 09:58:52;;;;;;;6.55;4.20;;;;;;;21.41;100.00;101133.13;4962360;28;20057;-85
2023/06/19 10:01:20;;;;;;;3.65;3.33;;;;;;;21.45;100.00;101143.78;4938920;28;20051;-86
2023/06/19 10:03:48;;;;;;;3.47;3.03;;;;;;;21.50;100.00;101150.72;4944737;28;20073;-84
2023/06/19 10:06:17;;;;;;;3.30;3.00;;;;;;;21.56;100.00;101160.34;4918583;28;20043;-82
2023/06/19 10:08:45;;;;;;;3.55;3.25;;;;;;;21.63;100.00;101151.13;4951644;29;20051;-85
2023/06/19 10:11:13;;;;;;;4.50;3.42;;;;;;;21.77;100.00;101162.19;4933132;29;20051;-84
2023/06/19 10:13:42;;;;;;;6.72;3.05;;;;;;;21.92;100.00;101165.22;4933576;28;20051;-85
2023/06/19 10:16:23;;;;;;;3.63;3.33;;;;;;;22.01;100.00;101159.50;4976232;28;20051;-83
2023/06/19 10:18:52;;;;;;;4.45;3.78;;;;;;;22.07;100.00;101161.94;4934949;28;20046;-84
2023/06/19 10:21:21;;;;;;;4.53;3.58;;;;;;;22.11;100.00;101166.22;4903768;28;20055;-86
2023/06/19 10:23:56;;;;;;;3.88;3.45;;;;;;;22.10;100.00;101164.50;4936575;29;20043;-86
2023/06/19 10:26:32;;;;;;;3.88;3.10;;;;;;;22.09;100.00;101162.75;4950302;29;20058;-84
2023/06/19 10:29:00;;;;;;;4.95;3.08;;;;;;;22.04;100.00;101164.75;4945472;28;20070;-87
2023/06/19 10:31:30;;;;;;;6.63;3.95;;;;;;;21.99;100.00;101164.06;4949038;29;20806;-86
2023/06/19 10:33:58;;;;;;;5.95;3.78;;;;;;;22.05;100.00;101166.50;4962878;28;20061;-83
2023/06/19 10:36:25;;;;;;;5.55;4.10;;;;;;;22.12;100.00;101164.44;4885519;28;20728;-83
2023/06/19 10:38:54;;;;;;;3.90;3.60;;;;;;;22.19;100.00;101169.50;4949908;28;20050;-85
2023/06/19 10:41:25;;;;;;;4.72;4.18;;;;;;;22.34;100.00;101180.56;4936160;29;20507;-86
2023/06/19 10:44:03;;;;;;;4.90;4.40;;;;;;;22.41;100.00;101178.53;4934503;28;20047;-84
2023/06/19 10:46:35;;;;;;;5.05;4.55;;;;;;;22.52;100.00;101176.28;4947619;29;20534;-85
2023/06/19 10:49:05;;;;;;;5.25;4.70;;;;;;;22.67;100.00;101170.25;4961904;28;20055;-85
2023/06/19 10:51:44;;;;;;;5.43;4.93;;;;;;;22.80;100.00;101172.41;4930270;28;20058;-86
2023/06/19 10:54:11;;;;;;;5.68;4.70;;;;;;;22.79;100.00;101179.59;4946358;29;20055;-85
2023/06/19 10:56:39;;;;;;;4.97;4.45;;;;;;;22.74;100.00;101187.88;4962862;28;20050;-84
2023/06/19 10:59:09;;;;;;;5.60;5.00;;;;;;;22.67;100.00;101180.13;4941655;28;20062;-84
2023/06/19 11:01:39;;;;;;;5.82;5.22;;;;;;;22.52;100.00;101193.25;4949774;29;20046;-84
2023/06/19 11:04:08;;;;;;;9.05;5.43;;;;;;;22.31;100.00;101195.00;4948596;29;20047;-84
2023/06/19 11:06:37;;;;;;;6.70;5.90;;;;;;;22.10;100.00;101191.34;4913986;28;20051;-85
2023/06/19 11:09:06;;;;;;;5.95;5.20;;;;;;;21.97;100.00;101190.06;4932875;29;20062;-85
2023/06/19 11:11:54;;;;;;;6.97;5.82;;;;;;;21.94;100.00;101192.88;4913730;29;20047;-85
2023/06/19 11:14:22;;;;;;;7.85;5.78;;;;;;;21.87;100.00;101196.72;4925473;29;20062;-85
2023/06/19 11:16:50;;;;;;;6.72;5.97;;;;;;;21.87;100.00;101188.66;4918431;29;20066;-85
2023/06/19 11:19:19;;;;;;;8.65;6.10;;;;;;;21.87;100.00;101199.41;4922285;28;20047;-85
2023/06/19 11:21:49;;;;;;;7.43;6.67;;;;;;;21.92;100.00;101202.78;4912354;28;20062;-84
2023/06/19 11:24:18;;;;;;;7.97;6.85;;;;;;;21.98;100.00;101203.44;4946826;28;20817;-84
2023/06/19 11:26:51;;;;;;;10.13;7.32;;;;;;;22.13;100.00;101203.75;4948369;29;20082;-85
2023/06/19 11:29:24;;;;;;;8.45;6.35;;;;;;;22.25;100.00;101210.44;4942848;28;20051;-84